Time;durP1;ratioP1;P1;durP2;ratioP2;P2;SDS_P1;SDS_P2;PMS_P1;PMS_P2;Temp;Humidity;BMP_temperature;BMP_pressure;BME280_temperature;BME280_humidity;BME280_pressure;Samples;Min_cycle;Max_cycle;Signal;HPM_P1;HPM_P2
2023/05/27 00:00:07;;;;;;;3.22;1.48;;;;;;;;;;4993917;28;20739;-58
2023/05/27 00:02:36;;;;;;;1.10;0.90;;;;;;;;;;5010256;28;20220;-58
2023/05/27 00:05:03;;;;;;;23.40;1.10;;;;;;;;;;4994475;28;20216;-59
2023/05/27 00:07:30;;;;;;;4.30;0.93;;;;;;;;;;5007810;28;20247;-58
2023/05/27 00:09:57;;;;;;;2.37;1.00;;;;;;;;;;5001201;28;20250;-58
2023/05/27 00:12:24;;;;;;;1.27;0.90;;;;;;;;;;5009785;28;20271;-58
2023/05/27 00:14:52;;;;;;;1.60;0.70;;;;;;;;;;5009028;28;20224;-58
2023/05/27 00:17:19;;;;;;;2.07;0.90;;;;;;;;;;5004884;28;20233;-58
2023/05/27 00:19:48;;;;;;;0.97;0.57;;;;;;;;;;5009202;28;20213;-59
2023/05/27 00:22:15;;;;;;;1.63;0.80;;;;;;;;;;5008770;28;20233;-59
2023/05/27 00:24:42;;;;;;;5.53;0.87;;;;;;;;;;5000226;28;20209;-58
2023/05/27 00:27:10;;;;;;;6.47;1.00;;;;;;;;;;4995352;28;20260;-58
2023/05/27 00:29:37;;;;;;;2.10;0.83;;;;;;;;;;5003971;28;20520;-58
2023/05/27 00:32:05;;;;;;;1.20;0.90;;;;;;;;;;4990292;28;20962;-58
2023/05/27 00:34:32;;;;;;;1.70;0.67;;;;;;;;;;4994414;28;20209;-58
2023/05/27 00:37:01;;;;;;;4.70;1.00;;;;;;;;;;5007107;28;20205;-58
2023/05/27 00:39:28;;;;;;;3.30;1.27;;;;;;;;;;5007041;28;20209;-59
2023/05/27 00:41:55;;;;;;;2.85;1.25;;;;;;;;;;5008664;28;20209;-58
2023/05/27 00:44:22;;;;;;;4.17;0.77;;;;;;;;;;5007224;28;20635;-59
2023/05/27 00:46:49;;;;;;;2.43;0.70;;;;;;;;;;4990014;28;20236;-58
2023/05/27 00:49:18;;;;;;;0.60;0.60;;;;;;;;;;4989880;28;20217;-58
2023/05/27 00:51:45;;;;;;;4.77;0.73;;;;;;;;;;4989744;28;20205;-58
2023/05/27 00:54:14;;;;;;;3.80;1.30;;;;;;;;;;4989647;28;20221;-58
2023/05/27 00:56:41;;;;;;;1.63;0.83;;;;;;;;;;4991729;28;20220;-58
2023/05/27 00:59:08;;;;;;;2.53;1.30;;;;;;;;;;5004684;28;20209;-58
2023/05/27 01:01:36;;;;;;;3.13;0.90;;;;;;;;;;4988144;28;20240;-58
2023/05/27 01:04:04;;;;;;;1.27;0.67;;;;;;;;;;4987735;28;20305;-58
2023/05/27 01:06:37;;;;;;;2.17;0.97;;;;;;;;;;4989003;28;20230;-57
2023/05/27 01:09:10;;;;;;;2.97;1.47;;;;;;;;;;4992924;28;20305;-58
2023/05/27 01:11:39;;;;;;;2.53;1.20;;;;;;;;;;4995796;28;20212;-58
2023/05/27 01:14:09;;;;;;;2.20;1.50;;;;;;;;;;5007731;28;20213;-58
2023/05/27 01:16:39;;;;;;;4.57;1.07;;;;;;;;;;5008847;28;20209;-58
2023/05/27 01:19:07;;;;;;;3.43;0.90;;;;;;;;;;4992095;28;20208;-58
2023/05/27 01:21:36;;;;;;;0.90;0.90;;;;;;;;;;4989957;28;20256;-58
2023/05/27 01:24:05;;;;;;;1.87;0.83;;;;;;;;;;5001363;28;20684;-58
2023/05/27 01:26:32;;;;;;;2.70;1.00;;;;;;;;;;5007878;28;20235;-58
2023/05/27 01:29:00;;;;;;;2.10;1.07;;;;;;;;;;5003723;28;20270;-58
2023/05/27 01:31:32;;;;;;;3.27;1.10;;;;;;;;;;5008042;28;20220;-58
2023/05/27 01:34:01;;;;;;;3.37;0.77;;;;;;;;;;5005860;28;20257;-58
2023/05/27 01:36:32;;;;;;;2.77;1.03;;;;;;;;;;5007434;28;20255;-58
2023/05/27 01:39:00;;;;;;;4.17;0.80;;;;;;;;;;4993360;28;20644;-59
2023/05/27 01:41:29;;;;;;;1.67;1.00;;;;;;;;;;5008148;28;20216;-58
2023/05/27 01:43:56;;;;;;;1.40;0.70;;;;;;;;;;4995259;28;20323;-58
2023/05/27 01:46:23;;;;;;;0.80;0.80;;;;;;;;;;4989782;28;20240;-59
2023/05/27 01:48:51;;;;;;;1.10;1.10;;;;;;;;;;5005152;28;20271;-58
2023/05/27 01:51:18;;;;;;;3.40;1.50;;;;;;;;;;4994635;28;20205;-58
2023/05/27 01:53:45;;;;;;;1.10;1.10;;;;;;;;;;5007964;28;20224;-58
2023/05/27 01:56:12;;;;;;;0.80;0.80;;;;;;;;;;4990859;28;20345;-58
2023/05/27 01:58:40;;;;;;;1.17;0.97;;;;;;;;;;4990599;28;20313;-58
2023/05/27 02:01:07;;;;;;;2.53;0.87;;;;;;;;;;4989474;28;20224;-58
2023/05/27 02:03:34;;;;;;;3.53;1.20;;;;;;;;;;4987793;28;20644;-58
2023/05/27 02:06:01;;;;;;;1.37;0.57;;;;;;;;;;5002876;28;20205;-58
2023/05/27 02:08:28;;;;;;;1.40;0.70;;;;;;;;;;5007253;28;20202;-58
2023/05/27 02:10:55;;;;;;;9.47;1.13;;;;;;;;;;4993400;28;20680;-58
2023/05/27 02:13:22;;;;;;;1.73;1.00;;;;;;;;;;5006255;28;20208;-58
2023/05/27 02:15:50;;;;;;;4.23;1.10;;;;;;;;;;5005589;28;20223;-58
2023/05/27 02:18:20;;;;;;;3.30;1.13;;;;;;;;;;5006983;28;20201;-58
2023/05/27 02:20:47;;;;;;;1.17;0.57;;;;;;;;;;5006209;28;20237;-58
2023/05/27 02:23:14;;;;;;;2.17;1.20;;;;;;;;;;5006912;28;20213;-58
2023/05/27 02:25:41;;;;;;;3.10;0.90;;;;;;;;;;4994349;28;20244;-57
2023/05/27 02:28:08;;;;;;;4.67;1.10;;;;;;;;;;4987977;28;20238;-58
2023/05/27 02:30:35;;;;;;;3.23;0.90;;;;;;;;;;4994059;28;20214;-58
2023/05/27 02:33:04;;;;;;;4.90;0.90;;;;;;;;;;5002979;28;20695;-58
2023/05/27 02:35:31;;;;;;;8.23;1.50;;;;;;;;;;5005718;28;20212;-58
2023/05/27 02:37:58;;;;;;;0.80;0.80;;;;;;;;;;5007529;28;20632;-58
2023/05/27 02:40:26;;;;;;;4.43;1.20;;;;;;;;;;5002788;28;20220;-58
2023/05/27 02:42:53;;;;;;;1.50;1.10;;;;;;;;;;4997258;28;20205;-58
2023/05/27 02:45:20;;;;;;;0.70;0.50;;;;;;;;;;5007005;28;20292;-57
2023/05/27 02:47:47;;;;;;;0.83;0.70;;;;;;;;;;5006360;28;20291;-58
2023/05/27 02:50:15;;;;;;;2.17;1.23;;;;;;;;;;5006431;28;20205;-58
2023/05/27 02:52:42;;;;;;;7.83;0.70;;;;;;;;;;4992908;28;20230;-58
2023/05/27 02:55:09;;;;;;;2.83;1.20;;;;;;;;;;5007390;28;20448;-58
2023/05/27 02:57:36;;;;;;;3.60;0.97;;;;;;;;;;4998305;28;20213;-58
2023/05/27 03:00:04;;;;;;;2.30;1.10;;;;;;;;;;4995550;28;20206;-58
2023/05/27 03:02:31;;;;;;;3.43;1.17;;;;;;;;;;5009558;28;20438;-58
2023/05/27 03:05:00;;;;;;;2.07;0.87;;;;;;;;;;5010297;28;20213;-57
2023/05/27 03:07:29;;;;;;;2.60;1.17;;;;;;;;;;5010779;28;20252;-58
2023/05/27 03:09:56;;;;;;;5.70;1.10;;;;;;;;;;5008499;28;20208;-58
2023/05/27 03:12:24;;;;;;;1.93;1.00;;;;;;;;;;5003874;28;20233;-58
2023/05/27 03:14:51;;;;;;;1.80;1.10;;;;;;;;;;5005772;28;20230;-58
2023/05/27 03:17:19;;;;;;;1.47;1.20;;;;;;;;;;4991489;28;20212;-58
2023/05/27 03:19:46;;;;;;;1.70;1.10;;;;;;;;;;4992115;28;20216;-58
2023/05/27 03:22:13;;;;;;;3.20;1.43;;;;;;;;;;5007315;28;20209;-58
2023/05/27 03:24:41;;;;;;;5.13;1.10;;;;;;;;;;5008214;28;20264;-58
2023/05/27 03:27:08;;;;;;;0.80;0.80;;;;;;;;;;5008684;28;20232;-58
2023/05/27 03:29:36;;;;;;;4.63;1.50;;;;;;;;;;5010317;28;20204;-58
2023/05/27 03:32:03;;;;;;;3.57;1.60;;;;;;;;;;4997569;28;20214;-58
2023/05/27 03:34:30;;;;;;;4.43;0.97;;;;;;;;;;4992009;28;20268;-58
2023/05/27 03:36:57;;;;;;;1.53;1.23;;;;;;;;;;5007685;28;20213;-57
2023/05/27 03:39:24;;;;;;;2.90;1.40;;;;;;;;;;5009872;28;20645;-58
2023/05/27 03:41:52;;;;;;;1.67;1.00;;;;;;;;;;5008462;28;20671;-57
2023/05/27 03:44:20;;;;;;;3.43;1.23;;;;;;;;;;4993555;28;20209;-58
2023/05/27 03:46:47;;;;;;;2.30;0.90;;;;;;;;;;5000620;28;20244;-58
2023/05/27 03:49:14;;;;;;;1.10;0.70;;;;;;;;;;5005874;28;20205;-57
2023/05/27 03:51:47;;;;;;;9.33;1.33;;;;;;;;;;5007988;28;20218;-57
2023/05/27 03:54:14;;;;;;;1.30;0.80;;;;;;;;;;5009698;28;20209;-58
2023/05/27 03:56:41;;;;;;;5.60;1.30;;;;;;;;;;4997942;28;20246;-58
2023/05/27 03:59:11;;;;;;;3.70;1.47;;;;;;;;;;4996160;28;20284;-58
2023/05/27 04:01:39;;;;;;;3.67;1.03;;;;;;;;;;4999411;28;20229;-57
2023/05/27 04:04:06;;;;;;;4.30;1.20;;;;;;;;;;4995287;28;20575;-58
2023/05/27 04:06:33;;;;;;;1.63;1.37;;;;;;;;;;5004943;28;20216;-58
2023/05/27 04:09:00;;;;;;;3.70;1.10;;;;;;;;;;5005159;28;20333;-58
2023/05/27 04:11:28;;;;;;;2.80;1.13;;;;;;;;;;4996862;28;20213;-58
2023/05/27 04:13:55;;;;;;;2.23;1.00;;;;;;;;;;5007973;28;20260;-58
2023/05/27 04:16:25;;;;;;;4.17;1.03;;;;;;;;;;5002358;28;20228;-58
2023/05/27 04:18:52;;;;;;;1.53;0.90;;;;;;;;;;4990410;28;20214;-58
2023/05/27 04:21:20;;;;;;;4.53;1.00;;;;;;;;;;4998430;28;20232;-58
2023/05/27 04:23:47;;;;;;;5.20;1.23;;;;;;;;;;5006859;28;20226;-58
2023/05/27 04:26:14;;;;;;;1.07;0.87;;;;;;;;;;5007162;28;20733;-58
2023/05/27 04:28:41;;;;;;;6.70;1.30;;;;;;;;;;5008608;28;20307;-59
2023/05/27 04:31:12;;;;;;;0.63;0.63;;;;;;;;;;4990014;28;20209;-58
2023/05/27 04:33:40;;;;;;;3.90;0.97;;;;;;;;;;5001121;28;20217;-58
2023/05/27 04:36:07;;;;;;;3.10;1.17;;;;;;;;;;4995318;28;20307;-58
2023/05/27 04:38:34;;;;;;;3.53;1.23;;;;;;;;;;5008529;28;20209;-58
2023/05/27 04:41:02;;;;;;;2.83;1.20;;;;;;;;;;4993432;28;20268;-58
2023/05/27 04:43:29;;;;;;;2.23;1.20;;;;;;;;;;5008089;28;20320;-58
2023/05/27 04:45:56;;;;;;;8.90;1.37;;;;;;;;;;5008245;28;20213;-58
2023/05/27 04:48:24;;;;;;;2.07;1.07;;;;;;;;;;5006404;28;20331;-58
2023/05/27 04:50:53;;;;;;;1.57;1.10;;;;;;;;;;4988918;28;20592;-56
2023/05/27 04:53:21;;;;;;;3.10;1.33;;;;;;;;;;4993448;28;20300;-58
2023/05/27 04:55:48;;;;;;;1.13;1.03;;;;;;;;;;4998562;28;20219;-59
2023/05/27 04:58:15;;;;;;;2.83;1.40;;;;;;;;;;5008014;28;20734;-58
2023/05/27 05:00:49;;;;;;;2.87;1.10;;;;;;;;;;5004719;28;20240;-57
2023/05/27 05:03:20;;;;;;;2.00;1.40;;;;;;;;;;5005034;28;20320;-58
2023/05/27 05:05:48;;;;;;;2.30;1.10;;;;;;;;;;5002415;28;20220;-57
2023/05/27 05:08:16;;;;;;;2.60;0.67;;;;;;;;;;5008333;28;20287;-58
2023/05/27 05:10:43;;;;;;;1.40;1.30;;;;;;;;;;4989071;28;20213;-58
2023/05/27 05:13:10;;;;;;;4.53;1.30;;;;;;;;;;5008224;28;20693;-58
2023/05/27 05:15:37;;;;;;;1.60;1.33;;;;;;;;;;5008505;28;20271;-59
2023/05/27 05:18:04;;;;;;;3.90;1.53;;;;;;;;;;4991890;28;20293;-58
2023/05/27 05:20:31;;;;;;;1.47;0.90;;;;;;;;;;4998447;28;20220;-58
2023/05/27 05:22:59;;;;;;;7.00;1.63;;;;;;;;;;5008455;28;20274;-57
2023/05/27 05:25:27;;;;;;;1.13;1.13;;;;;;;;;;5008379;28;20237;-59
2023/05/27 05:27:54;;;;;;;2.10;0.97;;;;;;;;;;5007304;28;20260;-58
2023/05/27 05:30:22;;;;;;;0.40;0.40;;;;;;;;;;5008539;28;20273;-57
2023/05/27 05:32:49;;;;;;;2.00;0.77;;;;;;;;;;4994579;28;20202;-58
2023/05/27 05:35:16;;;;;;;2.77;0.93;;;;;;;;;;4988983;28;20245;-58
2023/05/27 05:37:43;;;;;;;2.10;1.20;;;;;;;;;;5001901;28;20311;-58
2023/05/27 05:40:11;;;;;;;1.27;1.17;;;;;;;;;;5006733;28;20679;-57
2023/05/27 05:42:39;;;;;;;4.63;1.50;;;;;;;;;;5006440;28;20205;-58
2023/05/27 05:45:07;;;;;;;2.43;1.10;;;;;;;;;;5008304;28;20612;-58
2023/05/27 05:47:34;;;;;;;0.95;0.95;;;;;;;;;;5002377;28;20229;-57
2023/05/27 05:50:01;;;;;;;1.83;0.98;;;;;;;;;;5007863;28;20328;-57
2023/05/27 05:52:29;;;;;;;4.83;1.20;;;;;;;;;;5007593;28;20205;-57
2023/05/27 05:54:56;;;;;;;6.80;1.42;;;;;;;;;;5007791;28;20208;-58
2023/05/27 05:57:23;;;;;;;5.07;1.00;;;;;;;;;;5007151;28;20668;-58
2023/05/27 05:59:52;;;;;;;9.52;1.58;;;;;;;;;;5007541;28;20581;-58
2023/05/27 06:02:19;;;;;;;3.17;0.80;;;;;;;;;;5006838;28;20569;-57
2023/05/27 06:04:46;;;;;;;5.03;1.52;;;;;;;;;;5006669;28;20231;-58
2023/05/27 06:07:13;;;;;;;0.50;0.50;;;;;;;;;;5001986;28;20212;-58
2023/05/27 06:09:40;;;;;;;4.60;1.02;;;;;;;;;;5007373;28;20339;-58
2023/05/27 06:12:07;;;;;;;1.27;1.17;;;;;;;;;;4999932;28;20731;-59
2023/05/27 06:14:34;;;;;;;2.33;1.37;;;;;;;;;;5006943;28;20263;-58
2023/05/27 06:17:03;;;;;;;0.80;0.80;;;;;;;;;;5006116;28;20995;-59
2023/05/27 06:19:30;;;;;;;2.72;1.58;;;;;;;;;;5007855;28;20701;-59
2023/05/27 06:21:58;;;;;;;3.40;0.98;;;;;;;;;;5006138;28;20232;-59
2023/05/27 06:24:25;;;;;;;0.43;0.43;;;;;;;;;;5002689;28;20292;-59
2023/05/27 06:26:52;;;;;;;2.95;0.85;;;;;;;;;;4996685;28;20237;-59
2023/05/27 06:29:19;;;;;;;1.67;1.05;;;;;;;;;;4991962;28;20307;-59
2023/05/27 06:31:48;;;;;;;5.68;1.27;;;;;;;;;;4996035;28;20653;-59
2023/05/27 06:34:16;;;;;;;10.27;1.52;;;;;;;;;;4998292;28;20205;-59
2023/05/27 06:36:43;;;;;;;3.00;1.23;;;;;;;;;;5011159;28;20209;-58
2023/05/27 06:39:10;;;;;;;4.00;1.58;;;;;;;;;;5006150;28;20205;-58
2023/05/27 06:41:37;;;;;;;3.67;1.55;;;;;;;;;;5008013;28;20598;-59
2023/05/27 06:44:04;;;;;;;2.20;1.38;;;;;;;;;;5009877;28;20597;-59
2023/05/27 06:46:31;;;;;;;5.95;1.55;;;;;;;;;;5010733;28;20224;-55
2023/05/27 06:48:59;;;;;;;2.42;1.27;;;;;;;;;;5005105;28;20929;-58
2023/05/27 06:51:27;;;;;;;2.92;1.42;;;;;;;;;;5011567;28;20216;-60
2023/05/27 06:53:54;;;;;;;2.15;1.10;;;;;;;;;;5009249;28;20662;-59
2023/05/27 06:56:21;;;;;;;1.60;1.50;;;;;;;;;;5002495;28;20218;-63
2023/05/27 06:58:48;;;;;;;4.57;1.10;;;;;;;;;;5004534;28;20639;-60
2023/05/27 07:01:15;;;;;;;6.18;1.25;;;;;;;;;;4994069;28;20202;-60
2023/05/27 07:03:43;;;;;;;11.13;2.67;;;;;;;;;;5006205;28;20268;-60
2023/05/27 07:06:10;;;;;;;3.78;1.33;;;;;;;;;;4997709;28;20587;-59
2023/05/27 07:08:39;;;;;;;4.20;1.05;;;;;;;;;;4997595;28;20371;-60
2023/05/27 07:11:06;;;;;;;3.42;1.02;;;;;;;;;;4996337;28;20214;-60
2023/05/27 07:13:33;;;;;;;2.83;1.77;;;;;;;;;;4998823;28;20205;-59
2023/05/27 07:16:00;;;;;;;0.85;0.85;;;;;;;;;;4990758;28;20696;-59
2023/05/27 07:18:27;;;;;;;2.13;1.25;;;;;;;;;;5006470;28;20202;-59
2023/05/27 07:20:54;;;;;;;1.95;0.90;;;;;;;;;;4999271;28;20233;-59
2023/05/27 07:23:21;;;;;;;5.25;1.55;;;;;;;;;;4992963;28;20233;-59
2023/05/27 07:25:50;;;;;;;3.83;1.38;;;;;;;;;;4990511;28;20245;-59
2023/05/27 07:28:20;;;;;;;5.93;1.65;;;;;;;;;;5005285;28;20241;-60
2023/05/27 07:30:47;;;;;;;1.40;1.30;;;;;;;;;;5017187;28;20258;-59
2023/05/27 07:33:15;;;;;;;1.20;0.90;;;;;;;;;;5009556;28;20830;-60
2023/05/27 07:35:42;;;;;;;4.38;1.35;;;;;;;;;;4995197;28;20291;-59
2023/05/27 07:38:09;;;;;;;4.03;1.25;;;;;;;;;;5008195;28;20213;-60
2023/05/27 07:40:36;;;;;;;1.50;1.23;;;;;;;;;;5004427;28;20270;-59
2023/05/27 07:43:04;;;;;;;2.67;1.10;;;;;;;;;;5003890;28;20216;-59
2023/05/27 07:45:31;;;;;;;5.65;1.38;;;;;;;;;;5008351;28;20259;-62
2023/05/27 07:47:58;;;;;;;2.70;1.35;;;;;;;;;;5008675;28;20213;-62
2023/05/27 07:50:25;;;;;;;7.20;1.40;;;;;;;;;;5004338;28;20210;-62
2023/05/27 07:52:52;;;;;;;1.73;1.20;;;;;;;;;;4998550;28;20221;-62
2023/05/27 07:55:19;;;;;;;2.63;0.80;;;;;;;;;;5007621;28;20228;-62
2023/05/27 07:57:46;;;;;;;2.00;1.02;;;;;;;;;;5018048;28;20270;-63
2023/05/27 08:00:15;;;;;;;5.97;1.45;;;;;;;;;;5001643;28;20205;-63
2023/05/27 08:02:43;;;;;;;2.80;1.17;;;;;;;;;;5011390;28;20217;-63
2023/05/27 08:05:10;;;;;;;1.92;1.83;;;;;;;;;;5002840;28;20205;-63
2023/05/27 08:07:48;;;;;;;1.48;0.60;;;;;;;;;;5000171;28;20370;-63
2023/05/27 08:10:15;;;;;;;6.03;1.65;;;;;;;;;;4999192;28;20220;-63
2023/05/27 08:12:51;;;;;;;1.98;1.58;;;;;;;;;;5000919;28;20666;-63
2023/05/27 08:15:20;;;;;;;2.00;1.00;;;;;;;;;;4988505;28;20540;-63
2023/05/27 08:17:47;;;;;;;5.05;1.17;;;;;;;;;;5003803;28;20578;-63
2023/05/27 08:20:14;;;;;;;2.55;1.15;;;;;;;;;;4995558;28;20386;-63
2023/05/27 08:22:43;;;;;;;2.08;0.98;;;;;;;;;;4989087;28;20217;-62
2023/05/27 08:25:10;;;;;;;4.32;1.40;;;;;;;;;;4998818;28;20332;-63
2023/05/27 08:27:44;;;;;;;2.30;1.38;;;;;;;;;;5007239;28;20220;-62
2023/05/27 08:30:11;;;;;;;2.25;0.88;;;;;;;;;;5006570;28;20237;-63
2023/05/27 08:32:40;;;;;;;1.35;1.02;;;;;;;;;;5008611;28;20307;-63
2023/05/27 08:35:07;;;;;;;1.98;1.38;;;;;;;;;;5008787;28;20582;-63
2023/05/27 08:37:34;;;;;;;2.58;1.17;;;;;;;;;;5002652;28;20210;-64
2023/05/27 08:40:03;;;;;;;1.38;1.00;;;;;;;;;;5007552;28;20209;-62
2023/05/27 08:42:30;;;;;;;2.85;1.60;;;;;;;;;;4997450;28;20218;-63
2023/05/27 08:44:57;;;;;;;1.65;0.75;;;;;;;;;;5000615;28;20217;-62
2023/05/27 08:47:24;;;;;;;1.38;0.98;;;;;;;;;;5012817;28;20214;-64
2023/05/27 08:49:52;;;;;;;3.13;1.33;;;;;;;;;;5006017;28;20287;-63
2023/05/27 08:52:20;;;;;;;1.20;1.10;;;;;;;;;;4991823;28;20209;-63
2023/05/27 08:54:48;;;;;;;1.85;1.13;;;;;;;;;;4996194;28;20753;-63
2023/05/27 08:57:16;;;;;;;5.80;1.65;;;;;;;;;;4998767;28;20214;-63
2023/05/27 08:59:44;;;;;;;4.82;1.27;;;;;;;;;;4984181;28;20559;-63
2023/05/27 09:02:13;;;;;;;2.28;1.52;;;;;;;;;;4991791;28;20209;-63
2023/05/27 09:04:40;;;;;;;5.97;1.55;;;;;;;;;;4999289;28;20221;-63
2023/05/27 09:07:09;;;;;;;2.47;1.38;;;;;;;;;;4997663;28;20667;-63
2023/05/27 09:09:36;;;;;;;0.68;0.68;;;;;;;;;;5004264;28;20307;-63
2023/05/27 09:12:04;;;;;;;1.70;1.08;;;;;;;;;;4997651;28;20217;-63
2023/05/27 09:14:31;;;;;;;4.45;1.05;;;;;;;;;;4992556;28;20312;-63
2023/05/27 09:16:59;;;;;;;3.08;1.00;;;;;;;;;;4999836;28;20319;-63
2023/05/27 09:19:26;;;;;;;3.42;1.42;;;;;;;;;;4997323;28;20232;-63
2023/05/27 09:21:53;;;;;;;3.67;1.30;;;;;;;;;;5004997;28;20236;-63
2023/05/27 09:24:23;;;;;;;3.35;1.58;;;;;;;;;;4998445;28;20217;-63
2023/05/27 09:26:52;;;;;;;1.55;1.00;;;;;;;;;;4997249;28;20327;-64
2023/05/27 09:29:19;;;;;;;2.22;1.40;;;;;;;;;;4991288;28;20335;-64
2023/05/27 09:31:47;;;;;;;4.13;1.25;;;;;;;;;;4987992;28;20319;-63
2023/05/27 09:34:15;;;;;;;1.75;1.45;;;;;;;;;;4989786;28;20214;-63
2023/05/27 09:36:45;;;;;;;1.40;1.02;;;;;;;;;;4990332;28;20225;-63
2023/05/27 09:39:12;;;;;;;4.90;2.17;;;;;;;;;;4996304;28;20301;-63
2023/05/27 09:41:41;;;;;;;3.80;1.70;;;;;;;;;;4994978;28;20319;-63
2023/05/27 09:44:08;;;;;;;1.77;1.33;;;;;;;;;;4999826;28;20217;-64
2023/05/27 09:46:35;;;;;;;4.70;1.48;;;;;;;;;;4995795;28;20283;-63
2023/05/27 09:49:03;;;;;;;2.78;1.27;;;;;;;;;;4990018;28;20229;-63
2023/05/27 09:51:31;;;;;;;10.25;1.23;;;;;;;;;;5005427;28;20220;-63
2023/05/27 09:53:59;;;;;;;1.50;1.23;;;;;;;;;;4999496;28;20613;-63
2023/05/27 09:56:27;;;;;;;2.17;1.23;;;;;;;;;;5004980;28;20213;-63
2023/05/27 09:58:56;;;;;;;1.75;1.40;;;;;;;;;;4989274;28;20218;-64
2023/05/27 10:01:23;;;;;;;2.67;1.48;;;;;;;;;;4988076;28;20221;-63
2023/05/27 10:03:51;;;;;;;3.58;1.15;;;;;;;;;;4993679;28;20238;-64
2023/05/27 10:06:18;;;;;;;1.05;1.00;;;;;;;;;;5003897;28;20296;-64
2023/05/27 10:08:45;;;;;;;1.73;1.08;;;;;;;;;;4987191;28;20297;-64
2023/05/27 10:11:13;;;;;;;2.17;1.23;;;;;;;;;;5002551;28;20253;-63
2023/05/27 10:13:40;;;;;;;2.50;1.10;;;;;;;;;;4994397;28;20245;-64
2023/05/27 10:16:08;;;;;;;3.25;1.60;;;;;;;;;;5004848;28;20208;-64
2023/05/27 10:18:35;;;;;;;1.33;1.00;;;;;;;;;;5006681;28;20216;-64
2023/05/27 10:21:05;;;;;;;2.78;1.25;;;;;;;;;;4998023;28;20389;-64
2023/05/27 10:23:33;;;;;;;2.95;1.35;;;;;;;;;;5006095;28;20212;-64
2023/05/27 10:26:02;;;;;;;1.85;1.20;;;;;;;;;;4995453;28;20268;-63
2023/05/27 10:28:31;;;;;;;5.85;1.45;;;;;;;;;;4990658;28;20209;-63
2023/05/27 10:31:09;;;;;;;4.07;1.88;;;;;;;;;;4997273;28;20229;-63
2023/05/27 10:33:36;;;;;;;8.68;1.42;;;;;;;;;;5003693;28;20338;-63
2023/05/27 10:36:10;;;;;;;1.50;0.85;;;;;;;;;;5003043;28;20209;-63
2023/05/27 10:38:38;;;;;;;4.78;1.27;;;;;;;;;;4997432;28;20208;-64
2023/05/27 10:41:06;;;;;;;1.10;0.70;;;;;;;;;;4999272;28;20587;-64
2023/05/27 10:43:33;;;;;;;3.20;1.20;;;;;;;;;;5004087;28;20263;-64
2023/05/27 10:46:04;;;;;;;2.08;1.15;;;;;;;;;;5006598;28;20666;-64
2023/05/27 10:48:34;;;;;;;2.85;1.50;;;;;;;;;;4989901;28;20214;-64
2023/05/27 10:51:01;;;;;;;1.80;1.52;;;;;;;;;;4998507;28;20337;-65
2023/05/27 10:53:29;;;;;;;2.67;1.20;;;;;;;;;;5002059;28;20667;-61
2023/05/27 10:55:58;;;;;;;1.58;1.02;;;;;;;;;;5004725;28;20223;-61
2023/05/27 10:58:25;;;;;;;2.95;1.20;;;;;;;;;;5001197;28;20267;-60
2023/05/27 11:00:53;;;;;;;2.60;1.20;;;;;;;;;;5005190;28;20625;-60
2023/05/27 11:03:22;;;;;;;1.42;1.33;;;;;;;;;;4999232;28;20217;-60
2023/05/27 11:05:58;;;;;;;1.77;0.90;;;;;;;;;;5006334;28;20212;-60
2023/05/27 11:08:25;;;;;;;5.72;1.60;;;;;;;;;;4997097;28;20719;-60
2023/05/27 11:10:52;;;;;;;2.05;1.20;;;;;;;;;;5003321;28;20233;-60
2023/05/27 11:13:19;;;;;;;2.05;1.20;;;;;;;;;;5002260;28;20209;-61
2023/05/27 11:15:46;;;;;;;2.53;1.15;;;;;;;;;;5001928;28;20224;-61
2023/05/27 11:18:15;;;;;;;1.33;1.20;;;;;;;;;;4997391;28;20219;-61
2023/05/27 11:20:42;;;;;;;2.03;1.38;;;;;;;;;;5008703;28;20239;-61
2023/05/27 11:23:10;;;;;;;1.38;1.27;;;;;;;;;;5007729;28;20224;-60
2023/05/27 11:25:44;;;;;;;3.30;1.63;;;;;;;;;;4993841;28;20238;-60
2023/05/27 11:28:16;;;;;;;3.40;1.40;;;;;;;;;;4990115;28;20209;-60
2023/05/27 11:30:43;;;;;;;6.95;1.30;;;;;;;;;;4997222;28;20232;-60
2023/05/27 11:33:10;;;;;;;5.97;1.55;;;;;;;;;;5006074;28;20294;-60
2023/05/27 11:35:37;;;;;;;3.22;1.33;;;;;;;;;;5008000;28;20589;-60
2023/05/27 11:38:04;;;;;;;2.75;1.23;;;;;;;;;;5009699;28;20213;-60
2023/05/27 11:40:38;;;;;;;3.47;1.35;;;;;;;;;;4994600;28;20213;-60
2023/05/27 11:43:05;;;;;;;1.60;1.50;;;;;;;;;;5008492;28;20224;-60
2023/05/27 11:45:36;;;;;;;1.80;1.13;;;;;;;;;;5005888;28;20216;-61
2023/05/27 11:48:03;;;;;;;2.38;1.23;;;;;;;;;;5004977;28;20213;-59
2023/05/27 11:50:30;;;;;;;2.83;1.20;;;;;;;;;;5009047;28;20323;-60
2023/05/27 11:52:58;;;;;;;2.55;1.20;;;;;;;;;;5007757;28;20209;-60
2023/05/27 11:55:25;;;;;;;3.45;1.33;;;;;;;;;;4995461;28;20720;-63
2023/05/27 11:57:54;;;;;;;2.00;0.98;;;;;;;;;;5003147;28;20205;-62
2023/05/27 12:00:21;;;;;;;1.90;1.38;;;;;;;;;;4998592;28;20213;-60
2023/05/27 12:02:48;;;;;;;4.40;1.67;;;;;;;;;;4994143;28;20209;-60
2023/05/27 12:05:15;;;;;;;3.80;1.60;;;;;;;;;;5002411;28;20210;-61
2023/05/27 12:07:44;;;;;;;1.75;1.48;;;;;;;;;;4989343;28;20217;-59
2023/05/27 12:10:11;;;;;;;2.85;1.42;;;;;;;;;;5000837;28;20233;-62
2023/05/27 12:12:38;;;;;;;4.28;1.38;;;;;;;;;;5006252;28;20564;-61
2023/05/27 12:15:08;;;;;;;2.55;1.48;;;;;;;;;;4998932;28;20604;-62
2023/05/27 12:17:35;;;;;;;2.55;1.23;;;;;;;;;;5008164;28;20360;-61
2023/05/27 12:20:02;;;;;;;2.25;1.30;;;;;;;;;;5001575;28;20638;-60
2023/05/27 12:22:29;;;;;;;2.15;1.15;;;;;;;;;;5008502;28;20212;-61
2023/05/27 12:24:56;;;;;;;3.97;1.15;;;;;;;;;;5003321;28;20271;-61
2023/05/27 12:27:23;;;;;;;2.72;1.38;;;;;;;;;;5001081;28;20214;-64
2023/05/27 12:29:50;;;;;;;3.58;1.25;;;;;;;;;;4992974;28;20234;-61
2023/05/27 12:32:18;;;;;;;4.30;1.42;;;;;;;;;;5007508;28;20746;-63
2023/05/27 12:34:45;;;;;;;2.72;1.35;;;;;;;;;;5005601;28;20213;-60
2023/05/27 12:37:12;;;;;;;1.77;1.30;;;;;;;;;;4990750;28;20214;-63
2023/05/27 12:39:39;;;;;;;3.30;1.10;;;;;;;;;;4988696;28;20583;-60
2023/05/27 12:42:06;;;;;;;2.90;1.45;;;;;;;;;;4992429;28;20213;-65
2023/05/27 12:44:33;;;;;;;1.75;1.30;;;;;;;;;;5001358;28;20520;-64
2023/05/27 12:47:00;;;;;;;1.75;1.45;;;;;;;;;;5000409;28;20217;-68
2023/05/27 12:49:29;;;;;;;4.10;1.58;;;;;;;;;;5012205;28;20208;-63
2023/05/27 12:51:56;;;;;;;1.38;1.38;;;;;;;;;;5006182;28;20221;-64
2023/05/27 12:54:23;;;;;;;2.38;1.40;;;;;;;;;;4994558;28;20534;-63
2023/05/27 12:56:50;;;;;;;2.30;1.13;;;;;;;;;;4996802;28;20213;-60
2023/05/27 12:59:17;;;;;;;1.75;1.42;;;;;;;;;;4997487;28;20210;-61
2023/05/27 13:01:44;;;;;;;2.30;1.30;;;;;;;;;;4996617;28;20198;-63
2023/05/27 13:04:11;;;;;;;3.88;1.63;;;;;;;;;;4999802;28;20220;-60
2023/05/27 13:06:39;;;;;;;3.15;1.85;;;;;;;;;;5004145;28;20221;-60
2023/05/27 13:09:06;;;;;;;4.32;1.58;;;;;;;;;;5007090;28;20588;-60
2023/05/27 13:11:35;;;;;;;2.83;1.35;;;;;;;;;;5003002;28;20225;-60
2023/05/27 13:14:02;;;;;;;4.07;1.77;;;;;;;;;;4991317;28;20205;-59
2023/05/27 13:16:30;;;;;;;1.17;1.10;;;;;;;;;;4991138;28;20205;-62
2023/05/27 13:18:57;;;;;;;2.55;1.27;;;;;;;;;;5002836;28;20656;-63
2023/05/27 13:21:24;;;;;;;1.02;1.02;;;;;;;;;;4998120;28;20229;-62
2023/05/27 13:23:53;;;;;;;2.17;1.58;;;;;;;;;;4995596;28;20793;-65
2023/05/27 13:26:20;;;;;;;1.73;1.38;;;;;;;;;;4993693;28;20280;-59
2023/05/27 13:28:47;;;;;;;2.47;1.95;;;;;;;;;;5005569;28;20495;-59
2023/05/27 13:31:14;;;;;;;3.35;1.38;;;;;;;;;;4998560;28;20225;-62
2023/05/27 13:33:41;;;;;;;1.25;1.15;;;;;;;;;;4987624;28;20213;-60
2023/05/27 13:36:08;;;;;;;1.50;1.40;;;;;;;;;;4987061;28;20268;-62
2023/05/27 13:38:35;;;;;;;1.40;1.30;;;;;;;;;;4994379;28;20221;-62
2023/05/27 13:41:04;;;;;;;2.45;1.92;;;;;;;;;;5013998;28;20264;-64
2023/05/27 13:43:31;;;;;;;1.35;1.23;;;;;;;;;;5004345;28;20205;-63
2023/05/27 13:45:58;;;;;;;3.40;1.63;;;;;;;;;;4993137;28;20201;-61
2023/05/27 13:48:25;;;;;;;3.17;1.40;;;;;;;;;;5001123;28;20238;-61
2023/05/27 13:50:52;;;;;;;5.72;1.20;;;;;;;;;;4990969;28;20275;-61
2023/05/27 13:53:19;;;;;;;1.60;1.17;;;;;;;;;;4995229;28;20206;-60
2023/05/27 13:55:47;;;;;;;5.20;1.63;;;;;;;;;;4993393;28;20664;-61
2023/05/27 13:58:16;;;;;;;1.85;1.40;;;;;;;;;;5005967;28;20208;-61
2023/05/27 14:00:43;;;;;;;3.55;1.77;;;;;;;;;;5003766;28;20760;-61
2023/05/27 14:03:10;;;;;;;1.40;1.30;;;;;;;;;;4997992;28;20710;-60
2023/05/27 14:05:37;;;;;;;1.33;1.15;;;;;;;;;;5005091;28;20221;-59
2023/05/27 14:08:04;;;;;;;2.08;0.90;;;;;;;;;;5005284;28;20255;-59
2023/05/27 14:10:33;;;;;;;2.55;1.40;;;;;;;;;;5000071;28;20233;-58
2023/05/27 14:13:01;;;;;;;4.63;1.20;;;;;;;;;;4990731;28;20217;-59
2023/05/27 14:15:29;;;;;;;1.55;1.45;;;;;;;;;;4993551;28;20312;-59
2023/05/27 14:17:56;;;;;;;1.33;1.23;;;;;;;;;;5003674;28;20578;-59
2023/05/27 14:20:23;;;;;;;2.08;1.20;;;;;;;;;;4992724;28;20286;-59
2023/05/27 14:22:50;;;;;;;2.42;1.27;;;;;;;;;;4997064;28;20753;-60
2023/05/27 14:25:19;;;;;;;4.72;1.60;;;;;;;;;;5006915;28;20297;-60
2023/05/27 14:27:46;;;;;;;2.25;1.52;;;;;;;;;;5005939;28;20259;-61
2023/05/27 14:30:13;;;;;;;1.95;0.88;;;;;;;;;;4990622;28;20213;-61
2023/05/27 14:32:42;;;;;;;3.95;1.05;;;;;;;;;;4995732;28;20223;-61
2023/05/27 14:35:09;;;;;;;1.90;1.40;;;;;;;;;;4999787;28;20213;-61
2023/05/27 14:37:36;;;;;;;3.65;1.42;;;;;;;;;;4990741;28;20249;-61
2023/05/27 14:40:03;;;;;;;1.33;1.20;;;;;;;;;;5000474;28;20205;-60
2023/05/27 14:42:31;;;;;;;3.70;1.52;;;;;;;;;;4994854;28;20304;-62
2023/05/27 14:44:58;;;;;;;1.45;1.40;;;;;;;;;;4989391;28;20205;-60